Time;durP1;ratioP1;P1;durP2;ratioP2;P2;SDS_P1;SDS_P2;PMS_P1;PMS_P2;Temp;Humidity;BMP_temperature;BMP_pressure;BME280_temperature;BME280_humidity;BME280_pressure;Samples;Min_cycle;Max_cycle;Signal;HPM_P1;HPM_P2
2021/05/22 00:01:16;;;;;;;3.47;2.37;;;7.10;99.90;;;;;;5043961;28;20215;-60
2021/05/22 00:03:42;;;;;;;2.87;1.90;;;7.10;99.90;;;;;;5048606;28;20172;-59
2021/05/22 00:06:07;;;;;;;1.90;1.20;;;7.10;99.90;;;;;;5047741;28;20414;-60
2021/05/22 00:08:33;;;;;;;1.50;1.40;;;7.10;99.90;;;;;;5048047;28;20422;-59
2021/05/22 00:10:59;;;;;;;5.30;2.50;;;7.20;99.90;;;;;;5050938;28;20640;-60
2021/05/22 00:13:24;;;;;;;4.33;1.63;;;7.20;99.90;;;;;;5048330;28;20688;-59
2021/05/22 00:15:50;;;;;;;3.03;1.80;;;7.20;99.90;;;;;;5032370;28;20535;-59
2021/05/22 00:18:16;;;;;;;4.90;1.67;;;7.20;99.90;;;;;;5044455;28;20773;-60
2021/05/22 00:20:41;;;;;;;2.20;1.70;;;7.20;99.90;;;;;;5039471;28;20294;-60
2021/05/22 00:23:09;;;;;;;5.70;2.03;;;7.20;99.90;;;;;;5051940;28;20164;-60
2021/05/22 00:25:35;;;;;;;3.10;1.80;;;7.20;99.90;;;;;;5049870;28;20183;-59
2021/05/22 00:28:00;;;;;;;2.17;1.27;;;7.20;99.90;;;;;;5043850;28;20406;-59
2021/05/22 00:30:26;;;;;;;4.30;1.67;;;7.20;99.90;;;;;;5042925;28;20202;-60
2021/05/22 00:32:52;;;;;;;1.90;1.70;;;7.20;99.90;;;;;;5032778;28;20167;-58
2021/05/22 00:35:17;;;;;;;1.57;1.40;;;7.20;99.90;;;;;;5032652;28;20258;-59
2021/05/22 00:37:43;;;;;;;1.47;1.37;;;7.20;99.90;;;;;;5040368;28;20186;-59
2021/05/22 00:40:10;;;;;;;2.23;1.53;;;7.20;99.90;;;;;;5027316;28;20203;-60
2021/05/22 00:42:39;;;;;;;1.40;1.30;;;7.20;99.90;;;;;;5047069;28;20203;-57
2021/05/22 00:45:15;;;;;;;1.60;1.50;;;7.20;99.90;;;;;;5050557;28;20488;-59
2021/05/22 00:47:47;;;;;;;2.27;1.60;;;7.20;99.90;;;;;;5050391;28;20430;-59
2021/05/22 00:50:18;;;;;;;1.97;1.43;;;7.20;99.90;;;;;;5044767;28;20463;-58
2021/05/22 00:52:43;;;;;;;1.97;1.23;;;7.20;99.90;;;;;;5048529;28;20445;-59
2021/05/22 00:55:10;;;;;;;2.10;0.97;;;7.20;99.90;;;;;;5030000;28;20434;-59
2021/05/22 00:57:39;;;;;;;2.00;1.40;;;7.10;99.90;;;;;;5032979;28;20172;-58
2021/05/22 01:00:07;;;;;;;7.60;1.47;;;7.10;99.90;;;;;;5050575;28;20473;-58
2021/05/22 01:02:33;;;;;;;1.10;1.10;;;7.10;99.90;;;;;;5049293;28;20448;-59
2021/05/22 01:04:59;;;;;;;1.20;1.20;;;7.10;99.90;;;;;;5050561;28;21090;-59
2021/05/22 01:07:25;;;;;;;2.97;1.17;;;7.10;99.90;;;;;;5050868;28;20405;-59
2021/05/22 01:09:54;;;;;;;1.53;1.30;;;7.10;99.90;;;;;;5050328;28;20230;-59
2021/05/22 01:12:23;;;;;;;2.87;0.93;;;7.10;99.90;;;;;;5041663;28;20730;-60
2021/05/22 01:14:54;;;;;;;2.60;1.00;;;7.10;99.90;;;;;;5030752;28;20440;-59
2021/05/22 01:17:20;;;;;;;1.30;1.20;;;7.10;99.90;;;;;;5027367;28;20876;-59
2021/05/22 01:20:01;;;;;;;1.17;1.13;;;7.10;99.90;;;;;;5050036;28;21053;-59
2021/05/22 01:22:28;;;;;;;1.57;1.20;;;7.00;99.90;;;;;;5049488;28;20464;-59
2021/05/22 01:25:01;;;;;;;4.50;1.33;;;7.00;99.90;;;;;;5049890;28;20587;-59
2021/05/22 01:27:27;;;;;;;2.50;1.10;;;7.00;99.90;;;;;;5048881;28;20426;-57
2021/05/22 01:29:54;;;;;;;2.20;1.00;;;7.00;99.90;;;;;;5043043;28;20530;-59
2021/05/22 01:32:19;;;;;;;1.20;1.10;;;7.00;99.90;;;;;;5031198;28;20424;-58
2021/05/22 01:34:45;;;;;;;1.17;1.07;;;7.00;99.90;;;;;;5042209;28;20410;-59
2021/05/22 01:37:11;;;;;;;1.13;1.03;;;7.00;99.90;;;;;;5050192;28;20171;-60
2021/05/22 01:39:37;;;;;;;1.10;1.10;;;7.00;99.90;;;;;;5036802;28;20453;-59
2021/05/22 01:42:02;;;;;;;1.23;1.10;;;7.00;99.90;;;;;;5050534;28;20167;-58
2021/05/22 01:44:32;;;;;;;1.10;1.00;;;7.00;99.90;;;;;;5049095;28;20575;-58
2021/05/22 01:47:00;;;;;;;1.00;0.90;;;7.00;99.90;;;;;;5029068;28;20175;-59
2021/05/22 01:49:27;;;;;;;1.33;1.23;;;7.00;99.90;;;;;;5043840;28;20441;-59
2021/05/22 01:51:56;;;;;;;1.00;0.90;;;7.00;99.90;;;;;;5039551;28;20464;-60
2021/05/22 01:54:23;;;;;;;1.20;1.10;;;7.00;99.90;;;;;;5013293;28;20921;-59
2021/05/22 01:56:50;;;;;;;1.20;1.13;;;7.00;99.90;;;;;;5049698;28;20465;-59
2021/05/22 01:59:17;;;;;;;1.20;1.20;;;7.00;99.90;;;;;;5048501;28;20547;-59
2021/05/22 02:01:50;;;;;;;1.40;1.30;;;7.00;99.90;;;;;;5047579;28;20471;-59
2021/05/22 02:04:19;;;;;;;1.80;1.50;;;7.00;99.90;;;;;;5048235;28;20426;-59
2021/05/22 02:06:49;;;;;;;1.47;1.40;;;7.00;99.90;;;;;;5048752;28;20410;-58
2021/05/22 02:09:15;;;;;;;3.03;1.30;;;7.00;99.90;;;;;;5048537;28;20430;-60
2021/05/22 02:11:44;;;;;;;2.30;1.30;;;7.00;99.90;;;;;;5050055;28;20416;-59
2021/05/22 02:14:11;;;;;;;1.50;1.40;;;7.00;99.90;;;;;;5028432;28;20434;-58
2021/05/22 02:16:44;;;;;;;2.50;1.40;;;7.00;99.90;;;;;;5045490;28;20462;-60
2021/05/22 02:19:11;;;;;;;1.50;1.40;;;7.00;99.90;;;;;;5030316;28;20437;-58
2021/05/22 02:21:40;;;;;;;3.90;1.40;;;7.00;99.90;;;;;;5036413;28;20533;-59
2021/05/22 02:24:06;;;;;;;1.20;1.10;;;7.00;99.90;;;;;;5049645;28;20429;-60
2021/05/22 02:26:32;;;;;;;1.60;1.50;;;7.00;99.90;;;;;;5047369;28;21121;-60
2021/05/22 02:29:01;;;;;;;1.50;1.40;;;7.00;99.90;;;;;;5040983;28;20430;-59
2021/05/22 02:31:29;;;;;;;1.50;1.40;;;7.00;99.90;;;;;;5043922;28;20228;-60
2021/05/22 02:34:00;;;;;;;3.53;1.57;;;7.00;99.90;;;;;;5037868;28;20938;-59
2021/05/22 02:36:26;;;;;;;1.47;1.37;;;7.10;99.90;;;;;;5038161;28;20417;-59
2021/05/22 02:38:53;;;;;;;1.40;1.30;;;7.00;99.90;;;;;;5049577;28;21051;-59
2021/05/22 02:41:20;;;;;;;1.50;1.13;;;7.10;99.90;;;;;;5047900;28;20469;-59
2021/05/22 02:43:51;;;;;;;3.63;1.20;;;7.10;99.90;;;;;;5041408;28;20930;-59
2021/05/22 02:46:19;;;;;;;1.50;1.20;;;7.00;99.90;;;;;;5038990;28;20427;-59
2021/05/22 02:48:47;;;;;;;2.17;1.30;;;7.00;99.90;;;;;;5011678;28;20403;-60
2021/05/22 02:51:17;;;;;;;1.40;1.20;;;7.10;99.90;;;;;;5044093;28;20469;-59
2021/05/22 02:53:44;;;;;;;3.60;1.20;;;7.10;99.90;;;;;;5032611;28;20433;-59
2021/05/22 02:56:12;;;;;;;2.40;1.43;;;7.10;99.90;;;;;;5029599;28;20757;-59
2021/05/22 02:58:42;;;;;;;1.40;1.10;;;7.10;99.90;;;;;;5009560;28;20440;-60
2021/05/22 03:01:07;;;;;;;1.30;1.17;;;7.10;99.90;;;;;;5050052;28;20540;-59
2021/05/22 03:03:35;;;;;;;4.50;1.30;;;7.10;99.90;;;;;;5049092;28;20500;-59
2021/05/22 03:06:02;;;;;;;1.60;1.23;;;7.10;99.90;;;;;;5049764;28;20271;-59
2021/05/22 03:08:28;;;;;;;3.90;1.10;;;7.00;99.90;;;;;;5049134;28;20976;-60
2021/05/22 03:10:55;;;;;;;2.23;1.53;;;7.00;99.90;;;;;;5044359;28;20469;-59
2021/05/22 03:13:21;;;;;;;6.03;1.20;;;7.00;99.90;;;;;;5053206;28;20844;-59
2021/05/22 03:15:46;;;;;;;1.37;1.17;;;7.00;99.90;;;;;;5050796;28;20469;-59
2021/05/22 03:18:12;;;;;;;6.23;1.20;;;7.00;99.90;;;;;;5050660;28;20445;-59
2021/05/22 03:20:38;;;;;;;1.10;1.00;;;7.00;99.90;;;;;;5045669;28;20245;-59
2021/05/22 03:23:03;;;;;;;1.50;1.23;;;7.00;99.90;;;;;;5033443;28;20183;-58
2021/05/22 03:25:29;;;;;;;2.20;1.20;;;7.00;99.90;;;;;;5042728;28;20187;-58
2021/05/22 03:27:55;;;;;;;3.20;1.40;;;7.00;99.90;;;;;;5015935;28;20171;-59
2021/05/22 03:30:21;;;;;;;3.73;1.57;;;7.00;99.90;;;;;;5032934;28;20238;-59
2021/05/22 03:32:47;;;;;;;1.40;1.30;;;7.00;99.90;;;;;;5049191;28;20187;-59
2021/05/22 03:35:12;;;;;;;1.63;1.20;;;7.00;99.90;;;;;;5032944;28;20435;-59
2021/05/22 03:37:38;;;;;;;1.43;1.30;;;6.90;99.90;;;;;;5052594;28;20250;-58
2021/05/22 03:40:05;;;;;;;1.80;1.20;;;7.00;99.90;;;;;;5034758;28;20449;-58
2021/05/22 03:42:31;;;;;;;4.50;1.97;;;6.90;99.90;;;;;;5036911;28;20164;-59
2021/05/22 03:44:57;;;;;;;3.63;1.70;;;6.90;99.90;;;;;;5041387;28;20991;-61
2021/05/22 03:47:22;;;;;;;1.67;1.23;;;6.90;99.90;;;;;;5051832;28;20183;-59
2021/05/22 03:49:48;;;;;;;3.10;1.40;;;6.90;99.90;;;;;;5050111;28;20191;-59
2021/05/22 03:52:14;;;;;;;3.33;1.73;;;6.90;99.90;;;;;;5028637;28;20263;-59
2021/05/22 03:54:39;;;;;;;1.77;1.27;;;6.90;99.90;;;;;;5049987;28;20765;-57
2021/05/22 03:57:05;;;;;;;3.03;1.83;;;6.80;99.90;;;;;;5045956;28;20174;-59
2021/05/22 03:59:31;;;;;;;2.40;1.00;;;6.80;99.90;;;;;;5047719;28;20449;-59
2021/05/22 04:01:56;;;;;;;4.63;1.57;;;6.80;99.90;;;;;;5045270;28;20851;-59
2021/05/22 04:04:22;;;;;;;1.87;1.70;;;6.80;99.90;;;;;;5040529;28;20178;-59
2021/05/22 04:06:48;;;;;;;3.83;1.47;;;6.80;99.90;;;;;;5026988;28;20194;-59
2021/05/22 04:09:13;;;;;;;2.60;1.20;;;6.80;99.90;;;;;;5051270;28;20179;-59
2021/05/22 04:11:39;;;;;;;1.57;1.43;;;6.80;99.90;;;;;;5051080;28;20178;-60
2021/05/22 04:14:05;;;;;;;2.03;1.50;;;6.70;99.90;;;;;;5052188;28;20640;-58
2021/05/22 04:16:31;;;;;;;2.83;1.53;;;6.70;99.90;;;;;;5043645;28;20183;-59
2021/05/22 04:18:56;;;;;;;1.53;1.20;;;6.70;99.90;;;;;;5050616;28;20179;-59
2021/05/22 04:21:23;;;;;;;2.13;1.47;;;6.80;99.90;;;;;;5043398;28;20471;-59
2021/05/22 04:23:48;;;;;;;4.90;1.70;;;6.80;99.90;;;;;;5043449;28;20171;-59
2021/05/22 04:26:14;;;;;;;2.87;1.30;;;6.80;99.90;;;;;;5051312;28;20520;-59
2021/05/22 04:28:39;;;;;;;2.80;1.30;;;6.80;99.90;;;;;;5051834;28;20712;-59
2021/05/22 04:31:05;;;;;;;1.90;1.43;;;6.90;99.90;;;;;;5050026;28;20277;-58
2021/05/22 04:33:31;;;;;;;1.67;1.33;;;6.90;99.90;;;;;;5041928;28;20216;-58
2021/05/22 04:35:57;;;;;;;4.57;1.53;;;6.90;99.90;;;;;;5036997;28;20211;-59
2021/05/22 04:38:22;;;;;;;4.40;1.70;;;7.00;99.90;;;;;;5036046;28;20175;-58
2021/05/22 04:40:48;;;;;;;1.37;1.27;;;7.00;99.90;;;;;;5049700;28;20205;-60
2021/05/22 04:43:14;;;;;;;2.47;1.60;;;7.10;99.90;;;;;;5050360;28;20213;-59
2021/05/22 04:45:39;;;;;;;2.63;1.77;;;7.10;99.90;;;;;;5027370;28;20245;-59
2021/05/22 04:48:05;;;;;;;1.73;1.47;;;7.20;99.90;;;;;;5048217;28;20250;-59
2021/05/22 04:50:32;;;;;;;4.40;1.70;;;7.20;99.90;;;;;;5043607;28;20212;-59
2021/05/22 04:52:59;;;;;;;5.47;1.97;;;7.30;99.90;;;;;;5048619;28;20533;-59
2021/05/22 04:55:25;;;;;;;12.23;1.43;;;7.40;99.90;;;;;;5030816;28;20434;-59
2021/05/22 04:57:51;;;;;;;4.47;1.40;;;7.50;99.90;;;;;;5050178;28;20937;-59
2021/05/22 05:00:17;;;;;;;1.43;1.20;;;7.50;99.90;;;;;;5031266;28;20465;-59
2021/05/22 05:02:42;;;;;;;4.83;1.43;;;7.60;99.90;;;;;;5049726;28;20171;-59
2021/05/22 05:05:09;;;;;;;2.07;1.60;;;7.70;99.90;;;;;;5049820;28;20444;-60
2021/05/22 05:07:34;;;;;;;4.07;1.43;;;7.80;99.90;;;;;;5049675;28;20194;-59
2021/05/22 05:10:00;;;;;;;3.47;1.50;;;7.90;99.90;;;;;;5050160;28;20945;-59
2021/05/22 05:12:26;;;;;;;2.50;1.67;;;8.00;99.90;;;;;;5040561;28;20709;-59
2021/05/22 05:14:51;;;;;;;4.10;1.60;;;8.10;99.90;;;;;;5045427;28;20191;-59
2021/05/22 05:17:17;;;;;;;4.63;1.70;;;8.10;99.90;;;;;;5046001;28;20230;-59
2021/05/22 05:19:42;;;;;;;9.10;2.07;;;8.20;99.90;;;;;;5041931;28;20218;-59
2021/05/22 05:22:08;;;;;;;3.27;1.50;;;8.20;99.90;;;;;;5042102;28;20179;-58
2021/05/22 05:24:34;;;;;;;6.30;1.90;;;8.30;99.90;;;;;;5042167;28;20194;-59
2021/05/22 05:27:00;;;;;;;6.80;2.07;;;8.30;99.90;;;;;;5041049;28;20183;-60
2021/05/22 05:29:25;;;;;;;4.07;1.73;;;8.40;99.90;;;;;;5029751;28;21022;-58
2021/05/22 05:31:51;;;;;;;3.67;1.80;;;8.50;99.90;;;;;;5024503;28;20179;-58
2021/05/22 05:34:17;;;;;;;5.63;1.90;;;8.60;99.90;;;;;;5046420;28;20258;-57
2021/05/22 05:36:43;;;;;;;7.30;1.70;;;8.70;99.90;;;;;;5023246;28;20180;-57
2021/05/22 05:39:10;;;;;;;2.67;1.60;;;8.90;99.90;;;;;;5042035;28;20534;-57
2021/05/22 05:41:36;;;;;;;5.83;1.90;;;8.90;99.90;;;;;;5040307;28;20207;-59
2021/05/22 05:44:02;;;;;;;11.10;3.73;;;9.00;99.90;;;;;;5045303;28;20491;-60
2021/05/22 05:46:27;;;;;;;6.50;2.40;;;9.10;99.90;;;;;;5042642;28;20177;-59
2021/05/22 05:48:53;;;;;;;3.73;2.30;;;9.20;99.90;;;;;;5022966;28;20265;-60
2021/05/22 05:51:19;;;;;;;6.57;2.10;;;9.20;99.90;;;;;;5046660;28;20209;-61
2021/05/22 05:53:44;;;;;;;4.93;2.23;;;9.30;99.90;;;;;;5046243;28;20673;-60
2021/05/22 05:56:10;;;;;;;7.73;2.07;;;9.40;99.90;;;;;;5044938;28;20241;-60
2021/05/22 05:58:36;;;;;;;3.57;1.60;;;9.40;99.90;;;;;;5044391;28;20183;-60
2021/05/22 06:01:04;;;;;;;1.70;1.53;;;9.40;99.90;;;;;;5041494;28;20222;-59
2021/05/22 06:03:31;;;;;;;5.17;1.80;;;9.50;99.90;;;;;;5023607;28;20274;-60
2021/05/22 06:05:57;;;;;;;4.63;1.70;;;9.50;99.90;;;;;;5044077;28;20430;-59
2021/05/22 06:08:24;;;;;;;3.90;1.80;;;9.50;99.60;;;;;;5046582;28;21112;-59
2021/05/22 06:10:54;;;;;;;2.63;1.77;;;9.60;99.50;;;;;;5046834;28;20469;-62
2021/05/22 06:13:31;;;;;;;3.50;1.70;;;9.70;98.80;;;;;;5046696;28;20930;-60
2021/05/22 06:16:11;;;;;;;5.07;1.80;;;9.80;98.50;;;;;;5043510;28;21292;-60
2021/05/22 06:18:38;;;;;;;6.10;2.00;;;9.80;97.30;;;;;;5029180;28;20445;-59
2021/05/22 06:21:06;;;;;;;4.10;1.70;;;9.90;96.80;;;;;;5042220;28;20839;-60
2021/05/22 06:23:32;;;;;;;4.37;1.63;;;9.90;96.10;;;;;;5020301;28;20472;-59
2021/05/22 06:25:58;;;;;;;6.17;1.90;;;10.00;95.50;;;;;;5030475;28;20438;-59
2021/05/22 06:28:25;;;;;;;2.87;1.50;;;10.00;94.50;;;;;;5028038;28;20521;-61
2021/05/22 06:30:51;;;;;;;3.57;1.87;;;10.00;93.90;;;;;;5020941;28;20541;-60
2021/05/22 06:33:17;;;;;;;6.53;1.57;;;10.00;94.40;;;;;;5036271;28;20453;-60
2021/05/22 06:35:43;;;;;;;4.93;1.63;;;10.00;94.80;;;;;;5036149;28;20191;-59
2021/05/22 06:38:09;;;;;;;4.63;1.70;;;10.10;94.30;;;;;;5017092;28;20184;-60
2021/05/22 06:40:35;;;;;;;6.23;1.63;;;10.20;93.60;;;;;;5015320;28;20809;-61
2021/05/22 06:43:01;;;;;;;4.57;1.70;;;10.20;94.60;;;;;;5039223;28;20865;-60
2021/05/22 06:45:28;;;;;;;4.03;1.83;;;10.30;93.60;;;;;;5043505;28;20928;-60
2021/05/22 06:47:54;;;;;;;6.40;1.67;;;10.30;93.10;;;;;;5043861;28;20969;-60
2021/05/22 06:50:20;;;;;;;2.90;2.43;;;10.40;93.30;;;;;;5047579;28;20528;-59
2021/05/22 06:52:46;;;;;;;3.40;2.00;;;10.40;92.60;;;;;;5047072;28;20682;-60
2021/05/22 06:55:12;;;;;;;5.33;2.40;;;10.30;93.40;;;;;;5043376;28;20680;-60
2021/05/22 06:57:37;;;;;;;3.97;1.80;;;10.30;93.80;;;;;;5051795;28;20174;-61
2021/05/22 07:00:07;;;;;;;11.30;1.70;;;10.40;95.00;;;;;;5031716;28;20218;-59
2021/05/22 07:02:32;;;;;;;6.17;1.87;;;10.50;93.60;;;;;;5030697;28;20179;-60
2021/05/22 07:04:58;;;;;;;3.07;1.40;;;10.40;90.60;;;;;;5049460;28;20868;-61
2021/05/22 07:07:24;;;;;;;7.43;1.97;;;10.40;90.70;;;;;;5062694;28;20179;-59
2021/05/22 07:09:50;;;;;;;3.83;1.70;;;10.50;89.50;;;;;;5063382;28;20472;-60
2021/05/22 07:12:15;;;;;;;2.87;1.60;;;10.50;91.50;;;;;;5045213;28;20186;-60
2021/05/22 07:14:41;;;;;;;5.43;1.57;;;10.40;91.20;;;;;;5059394;28;20174;-60
2021/05/22 07:17:06;;;;;;;4.10;1.50;;;10.40;90.90;;;;;;5061091;28;20312;-60
2021/05/22 07:19:32;;;;;;;4.07;1.50;;;10.30;87.00;;;;;;5064493;28;20241;-62
2021/05/22 07:21:58;;;;;;;6.37;1.97;;;10.30;89.60;;;;;;5032462;28;20301;-58
2021/05/22 07:24:24;;;;;;;4.27;1.70;;;10.40;91.60;;;;;;5049341;28;20186;-60
2021/05/22 07:26:51;;;;;;;5.53;1.40;;;10.50;91.00;;;;;;5046577;28;20182;-60
2021/05/22 07:29:17;;;;;;;1.33;1.20;;;10.60;91.50;;;;;;5036578;28;20172;-60
2021/05/22 07:31:43;;;;;;;1.70;1.40;;;10.70;91.00;;;;;;5047211;28;20436;-60
2021/05/22 07:34:10;;;;;;;3.17;1.30;;;10.80;91.00;;;;;;5029733;28;20479;-60
2021/05/22 07:36:37;;;;;;;4.63;1.50;;;10.80;84.40;;;;;;5022610;28;20524;-61
2021/05/22 07:39:06;;;;;;;2.73;1.30;;;10.80;81.60;;;;;;5042184;28;20464;-58
2021/05/22 07:41:32;;;;;;;4.77;1.70;;;10.80;78.20;;;;;;5034949;28;20450;-58
2021/05/22 07:43:57;;;;;;;4.90;1.60;;;10.80;80.60;;;;;;5038095;28;21366;-58
2021/05/22 07:46:23;;;;;;;3.37;1.30;;;10.80;84.00;;;;;;5033861;28;20189;-59
2021/05/22 07:48:49;;;;;;;3.97;1.40;;;10.90;85.40;;;;;;5038158;28;20192;-60
2021/05/22 07:51:15;;;;;;;5.53;1.80;;;10.90;83.10;;;;;;5046562;28;20267;-58
2021/05/22 07:53:41;;;;;;;5.50;1.40;;;11.00;82.40;;;;;;5045371;28;20183;-58
2021/05/22 07:56:07;;;;;;;3.20;1.60;;;11.00;80.30;;;;;;5029052;28;20968;-58
2021/05/22 07:58:32;;;;;;;2.53;1.30;;;11.00;76.30;;;;;;5028576;28;20183;-56
2021/05/22 08:00:58;;;;;;;7.20;1.50;;;10.90;67.10;;;;;;5033619;28;20742;-59
2021/05/22 08:03:23;;;;;;;6.87;1.40;;;10.80;68.60;;;;;;5011905;28;20996;-57
2021/05/22 08:05:49;;;;;;;2.67;1.30;;;10.70;72.60;;;;;;5033549;28;21014;-58
2021/05/22 08:08:15;;;;;;;3.20;1.70;;;10.60;74.40;;;;;;5037155;28;20840;-59
2021/05/22 08:10:40;;;;;;;6.87;1.60;;;10.50;71.40;;;;;;5036191;28;20191;-57
2021/05/22 08:13:08;;;;;;;3.63;1.10;;;10.50;73.40;;;;;;5041615;28;20529;-60
2021/05/22 08:15:34;;;;;;;10.27;2.00;;;10.40;72.60;;;;;;5041572;28;20597;-60
2021/05/22 08:18:00;;;;;;;4.77;1.77;;;10.50;76.20;;;;;;5020595;28;20442;-61
2021/05/22 08:20:25;;;;;;;5.70;1.37;;;10.50;72.80;;;;;;5030742;28;21177;-58
2021/05/22 08:22:51;;;;;;;2.00;1.27;;;10.50;72.50;;;;;;5038894;28;20194;-58
2021/05/22 08:25:17;;;;;;;4.50;1.70;;;10.50;68.70;;;;;;5030297;28;20781;-59
2021/05/22 08:27:43;;;;;;;3.53;1.20;;;10.60;71.50;;;;;;5037669;28;20217;-59
2021/05/22 08:30:10;;;;;;;1.50;1.20;;;10.70;71.60;;;;;;5036929;28;20199;-57
2021/05/22 08:32:37;;;;;;;5.07;1.90;;;10.80;73.80;;;;;;5038617;28;20870;-57
2021/05/22 08:35:04;;;;;;;7.07;1.50;;;10.80;72.30;;;;;;5037916;28;22495;-58
2021/05/22 08:37:30;;;;;;;2.10;1.30;;;10.90;70.70;;;;;;5024152;28;20906;-58
2021/05/22 08:39:56;;;;;;;2.10;1.30;;;10.90;71.60;;;;;;5031709;28;20460;-58
2021/05/22 08:42:24;;;;;;;6.63;1.30;;;10.90;74.70;;;;;;5041201;28;20906;-59
2021/05/22 08:44:51;;;;;;;5.20;1.57;;;11.00;68.30;;;;;;5042449;28;20266;-58
2021/05/22 08:47:17;;;;;;;3.00;1.40;;;11.00;72.40;;;;;;5035726;28;20520;-58
2021/05/22 08:49:43;;;;;;;7.53;1.93;;;11.00;71.90;;;;;;5044056;28;20450;-58
2021/05/22 08:52:12;;;;;;;1.93;1.07;;;11.00;65.00;;;;;;5042031;28;21013;-56
2021/05/22 08:54:39;;;;;;;4.70;1.50;;;11.00;64.40;;;;;;5038694;28;20179;-56
2021/05/22 08:57:05;;;;;;;2.23;1.20;;;11.00;64.00;;;;;;5035312;28;20479;-56
2021/05/22 08:59:32;;;;;;;2.00;1.30;;;11.00;65.80;;;;;;5040681;28;20551;-56
2021/05/22 09:01:58;;;;;;;4.00;1.70;;;11.00;65.50;;;;;;5015437;28;20461;-59
2021/05/22 09:04:23;;;;;;;6.20;1.40;;;11.20;67.80;;;;;;5035421;28;20488;-60
2021/05/22 09:07:04;;;;;;;4.07;1.50;;;11.30;65.50;;;;;;5039833;28;20612;-59
2021/05/22 09:09:43;;;;;;;2.67;1.20;;;11.60;67.40;;;;;;5039965;28;20199;-62
2021/05/22 09:12:12;;;;;;;5.93;1.20;;;11.80;57.20;;;;;;5034022;28;20487;-61
2021/05/22 09:14:44;;;;;;;3.87;2.13;;;11.90;57.10;;;;;;5003227;28;20433;-63
2021/05/22 09:17:12;;;;;;;5.20;1.40;;;12.00;57.30;;;;;;5039884;28;21301;-61
2021/05/22 09:19:38;;;;;;;3.10;1.20;;;12.10;57.50;;;;;;5041760;28;20595;-60
2021/05/22 09:22:24;;;;;;;2.90;1.17;;;12.20;58.40;;;;;;5035140;28;20461;-61
2021/05/22 09:24:57;;;;;;;2.80;1.40;;;12.40;56.80;;;;;;5034195;28;20429;-64
2021/05/22 09:27:22;;;;;;;2.50;1.60;;;12.50;58.30;;;;;;5019804;28;20430;-61
2021/05/22 09:29:50;;;;;;;5.80;1.40;;;12.60;57.10;;;;;;5041415;28;20433;-61
2021/05/22 09:32:16;;;;;;;4.77;1.70;;;12.50;57.70;;;;;;5040008;28;20726;-61
2021/05/22 09:34:43;;;;;;;6.57;1.43;;;12.50;55.60;;;;;;5036223;28;20432;-60
2021/05/22 09:37:12;;;;;;;8.07;1.70;;;12.40;54.70;;;;;;5036938;28;20429;-63
2021/05/22 09:39:49;;;;;;;3.43;1.20;;;12.30;54.90;;;;;;5038786;28;20528;-58
2021/05/22 09:42:25;;;;;;;4.83;1.37;;;12.30;56.90;;;;;;5036393;28;20472;-59
2021/05/22 09:44:51;;;;;;;6.43;2.47;;;12.50;57.80;;;;;;5032800;28;20425;-60
2021/05/22 09:47:17;;;;;;;4.13;1.40;;;12.70;56.80;;;;;;5032623;28;20452;-61
2021/05/22 09:49:43;;;;;;;4.90;1.70;;;12.70;56.80;;;;;;5028004;28;20437;-60
2021/05/22 09:52:10;;;;;;;4.50;2.10;;;12.70;55.10;;;;;;5038388;28;20191;-59
2021/05/22 09:54:44;;;;;;;3.97;1.37;;;12.60;53.50;;;;;;5021880;28;20207;-60
2021/05/22 09:57:14;;;;;;;3.60;1.47;;;12.50;54.70;;;;;;5036744;28;20559;-60
2021/05/22 09:59:40;;;;;;;3.20;1.60;;;12.30;54.50;;;;;;5048016;28;20541;-60
2021/05/22 10:02:06;;;;;;;2.73;1.47;;;12.20;55.40;;;;;;5043199;28;20982;-60
2021/05/22 10:04:32;;;;;;;6.27;1.60;;;12.10;56.00;;;;;;5047998;28;21935;-60
2021/05/22 10:06:57;;;;;;;4.00;1.90;;;12.10;55.10;;;;;;5031849;28;20183;-59
2021/05/22 10:09:25;;;;;;;3.93;1.33;;;12.10;55.60;;;;;;5048861;28;20175;-60
2021/05/22 10:12:03;;;;;;;4.53;1.60;;;12.20;56.50;;;;;;5028419;28;20580;-60
2021/05/22 10:14:38;;;;;;;2.80;1.67;;;12.40;55.60;;;;;;5034475;28;20433;-60
2021/05/22 10:17:04;;;;;;;4.30;1.87;;;12.60;54.80;;;;;;5028755;28;20437;-60
2021/05/22 10:19:32;;;;;;;5.57;1.30;;;12.90;54.10;;;;;;5049067;28;20547;-60
2021/05/22 10:21:59;;;;;;;6.00;1.63;;;13.10;53.20;;;;;;5048670;28;20932;-60
2021/05/22 10:24:25;;;;;;;5.23;1.50;;;13.30;53.10;;;;;;5031565;28;20455;-60
2021/05/22 10:26:52;;;;;;;3.17;1.30;;;13.50;53.30;;;;;;5048412;28;20425;-60
2021/05/22 10:29:19;;;;;;;3.20;1.33;;;13.60;51.00;;;;;;5041033;28;20429;-61
2021/05/22 10:31:46;;;;;;;3.27;1.20;;;13.70;50.10;;;;;;5047297;28;20467;-60
2021/05/22 10:34:20;;;;;;;2.03;1.20;;;13.70;49.10;;;;;;5029682;28;20471;-61
2021/05/22 10:36:57;;;;;;;2.57;1.43;;;13.90;49.10;;;;;;5028417;28;20424;-60
2021/05/22 10:39:58;;;;;;;2.50;1.40;;;14.10;50.40;;;;;;5044935;28;20467;-60
2021/05/22 10:42:23;;;;;;;1.93;1.23;;;14.40;49.70;;;;;;4980756;28;20456;-60
2021/05/22 10:44:49;;;;;;;4.37;1.40;;;14.60;46.10;;;;;;5031207;28;20922;-61
2021/05/22 10:47:18;;;;;;;3.60;1.30;;;14.80;47.10;;;;;;5044304;28;20182;-61
2021/05/22 10:49:57;;;;;;;4.20;1.50;;;14.90;44.80;;;;;;5043116;28;20449;-60
2021/05/22 10:52:24;;;;;;;3.50;1.33;;;14.90;43.40;;;;;;5046560;28;20425;-60
2021/05/22 10:55:12;;;;;;;2.70;1.10;;;14.90;45.30;;;;;;5047764;28;20446;-61
2021/05/22 10:57:46;;;;;;;2.87;1.10;;;15.00;45.10;;;;;;5041031;28;20804;-61
2021/05/22 11:00:23;;;;;;;4.17;1.20;;;14.90;43.40;;;;;;5046978;28;20522;-61
2021/05/22 11:03:08;;;;;;;2.80;1.30;;;15.00;43.90;;;;;;5045935;28;20425;-60
2021/05/22 11:05:41;;;;;;;1.67;1.10;;;15.20;44.20;;;;;;5041156;28;20507;-60
2021/05/22 11:08:07;;;;;;;6.20;1.40;;;15.40;43.20;;;;;;5042964;28;21064;-60
2021/05/22 11:10:42;;;;;;;2.93;1.20;;;15.60;45.30;;;;;;5031234;28;20433;-60
2021/05/22 11:13:10;;;;;;;1.33;0.83;;;15.60;44.50;;;;;;5044621;28;20253;-59
2021/05/22 11:15:47;;;;;;;2.30;1.23;;;15.60;42.20;;;;;;5028340;28;20444;-60
2021/05/22 11:18:15;;;;;;;2.50;0.90;;;15.20;40.70;;;;;;5048799;28;20417;-60
2021/05/22 11:20:43;;;;;;;1.40;1.00;;;15.20;42.30;;;;;;5045857;28;20844;-59
2021/05/22 11:23:10;;;;;;;2.70;1.20;;;15.30;41.50;;;;;;5041765;28;20504;-60
2021/05/22 11:25:52;;;;;;;1.63;0.90;;;15.50;42.20;;;;;;5048999;28;20425;-61
2021/05/22 11:28:22;;;;;;;1.50;0.93;;;15.70;41.20;;;;;;5050767;28;20421;-62
2021/05/22 11:30:56;;;;;;;1.53;1.00;;;15.70;41.10;;;;;;5051398;28;20956;-60
2021/05/22 11:33:21;;;;;;;2.73;0.90;;;15.60;40.80;;;;;;5050069;28;20455;-59
2021/05/22 11:35:51;;;;;;;2.30;1.20;;;15.70;41.60;;;;;;5046409;28;20435;-57
2021/05/22 11:38:17;;;;;;;4.53;1.10;;;16.00;41.90;;;;;;5047507;28;20239;-59
2021/05/22 11:40:43;;;;;;;4.30;1.10;;;16.30;41.70;;;;;;5050089;28;20453;-60
2021/05/22 11:43:15;;;;;;;;;;;;;;;;;;;;;
2021/05/22 11:45:46;;;;;;;3.47;1.40;;;16.20;39.70;;;;;;5050178;28;20667;-59
2021/05/22 11:48:39;;;;;;;1.47;1.10;;;16.20;39.80;;;;;;5028835;28;20522;-58
2021/05/22 11:51:23;;;;;;;10.00;1.33;;;16.30;38.90;;;;;;5052270;28;20429;-60
2021/05/22 11:53:57;;;;;;;3.70;1.40;;;16.50;38.70;;;;;;5060600;28;21005;-60
2021/05/22 11:56:24;;;;;;;1.20;0.90;;;16.70;39.40;;;;;;5060393;28;20520;-61
2021/05/22 11:58:55;;;;;;;1.57;0.97;;;16.80;39.70;;;;;;5063176;28;20428;-60
2021/05/22 12:01:32;;;;;;;3.10;1.13;;;17.00;39.80;;;;;;5051783;28;20461;-60
2021/05/22 12:04:12;;;;;;;0.93;0.80;;;16.70;36.40;;;;;;5047182;28;20516;-60
2021/05/22 12:06:40;;;;;;;1.70;1.00;;;16.60;38.20;;;;;;5047860;28;20508;-60
2021/05/22 12:09:12;;;;;;;6.37;1.10;;;16.70;37.90;;;;;;5050066;28;20973;-60
2021/05/22 12:11:53;;;;;;;3.33;0.93;;;16.90;37.80;;;;;;5044900;28;20457;-59
2021/05/22 12:14:18;;;;;;;1.00;0.90;;;17.00;37.80;;;;;;5024397;28;20433;-60
2021/05/22 12:16:44;;;;;;;2.13;1.10;;;17.20;37.30;;;;;;5034558;28;20779;-60
2021/05/22 12:19:21;;;;;;;2.50;1.40;;;17.50;36.20;;;;;;5024534;28;20249;-58
2021/05/22 12:21:50;;;;;;;6.00;1.10;;;17.50;36.00;;;;;;5042651;28;20218;-59
2021/05/22 12:24:17;;;;;;;9.20;1.00;;;17.70;36.30;;;;;;5040429;28;20578;-57
2021/05/22 12:26:52;;;;;;;3.30;1.00;;;17.80;35.70;;;;;;5042326;28;20434;-56
2021/05/22 12:29:19;;;;;;;0.93;0.80;;;17.70;35.40;;;;;;5034556;28;20425;-58
2021/05/22 12:31:50;;;;;;;2.53;1.13;;;17.30;35.30;;;;;;5044780;28;20425;-57
2021/05/22 12:34:15;;;;;;;4.00;1.10;;;17.20;36.90;;;;;;5036817;28;20469;-57
2021/05/22 12:37:00;;;;;;;1.10;0.87;;;17.40;37.40;;;;;;5035060;28;20885;-57
2021/05/22 12:39:50;;;;;;;1.63;1.07;;;17.80;36.60;;;;;;5036497;28;20183;-57
2021/05/22 12:42:23;;;;;;;2.20;1.10;;;18.20;38.10;;;;;;5026992;28;20481;-57
2021/05/22 12:44:57;;;;;;;1.93;1.20;;;18.70;37.30;;;;;;5031963;28;20436;-59
2021/05/22 12:47:35;;;;;;;1.67;1.10;;;19.10;36.00;;;;;;5030924;28;21123;-58
2021/05/22 12:50:02;;;;;;;1.60;1.00;;;19.20;35.10;;;;;;5034735;28;20935;-57
2021/05/22 12:52:29;;;;;;;4.47;1.10;;;19.20;35.60;;;;;;5021391;28;20438;-58
2021/05/22 12:54:56;;;;;;;2.50;0.90;;;19.20;33.10;;;;;;5013487;28;20820;-58
2021/05/22 12:57:24;;;;;;;2.00;0.90;;;19.30;35.20;;;;;;5030567;28;20429;-59